createdAt,value
2024-01-28T00:01:23.123Z,102027.27
2024-01-28T00:04:03.671Z,102027.96
2024-01-28T00:06:31.569Z,102024.94
2024-01-28T00:08:59.781Z,102031.00
2024-01-28T00:11:27.959Z,102031.70
2024-01-28T00:13:55.979Z,102038.52
2024-01-28T00:16:23.967Z,102038.82
2024-01-28T00:18:59.354Z,102042.58
2024-01-28T00:21:28.203Z,102045.40
2024-01-28T00:23:57.172Z,102054.05
2024-01-28T00:26:25.670Z,102055.02
2024-01-28T00:28:53.573Z,102062.63
2024-01-28T00:31:21.454Z,102061.05
2024-01-28T00:33:49.508Z,102067.70
2024-01-28T00:36:17.533Z,102074.14
2024-01-28T00:38:45.498Z,102075.41
2024-01-28T00:41:31.034Z,102077.55
2024-01-28T00:43:59.664Z,102086.84
2024-01-28T00:46:27.977Z,102087.48
2024-01-28T00:48:56.160Z,102082.45
2024-01-28T00:51:24.355Z,102092.81
2024-01-28T00:53:52.349Z,102088.73
2024-01-28T00:56:20.769Z,102094.83
2024-01-28T00:58:48.641Z,102097.44
2024-01-28T01:01:16.993Z,102101.60
2024-01-28T01:03:44.968Z,102100.41
2024-01-28T01:06:12.950Z,102103.23
2024-01-28T01:08:40.872Z,102096.88
2024-01-28T01:11:09.107Z,102097.21
2024-01-28T01:13:36.970Z,102098.73
2024-01-28T01:16:05.241Z,102099.83
2024-01-28T01:18:33.593Z,102097.69
2024-01-28T01:21:01.558Z,102098.73
2024-01-28T01:23:30.747Z,102105.05
2024-01-28T01:25:58.622Z,102108.08
2024-01-28T01:28:32.907Z,102096.95
2024-01-28T01:31:05.217Z,102098.08
2024-01-28T01:33:33.298Z,102099.11
2024-01-28T01:36:01.725Z,102094.30
2024-01-28T01:38:30.228Z,102095.27
2024-01-28T01:40:59.715Z,102104.95
2024-01-28T01:43:27.725Z,102099.59
2024-01-28T01:45:55.634Z,102102.55
2024-01-28T01:48:23.996Z,102110.96
2024-01-28T01:50:52.232Z,102110.20
2024-01-28T01:53:20.193Z,102104.95
2024-01-28T01:55:48.145Z,102105.46
2024-01-28T01:58:16.199Z,102103.60
2024-01-28T02:00:44.619Z,102108.29
2024-01-28T02:03:13.320Z,102106.52
2024-01-28T02:05:41.838Z,102105.95
2024-01-28T02:08:09.831Z,102105.37
2024-01-28T02:10:37.769Z,102103.06
2024-01-28T02:13:05.896Z,102096.09
2024-01-28T02:15:40.471Z,102095.61
2024-01-28T02:18:08.774Z,102098.70
2024-01-28T02:20:37.010Z,102100.88
2024-01-28T02:23:06.104Z,102103.52
2024-01-28T02:25:34.303Z,102102.96
2024-01-28T02:28:02.255Z,102107.45
2024-01-28T02:30:30.262Z,102108.14
2024-01-28T02:32:58.430Z,102107.89
2024-01-28T02:35:26.672Z,102107.46
2024-01-28T02:37:54.595Z,102110.30
2024-01-28T02:40:22.565Z,102115.92
2024-01-28T02:42:50.793Z,102117.23
2024-01-28T02:45:19.481Z,102119.03
2024-01-28T02:47:47.383Z,102121.64
2024-01-28T02:50:15.317Z,102124.65
2024-01-28T02:52:43.163Z,102129.19
2024-01-28T02:55:11.123Z,102140.80
2024-01-28T02:57:39.013Z,102146.88
2024-01-28T03:00:07.728Z,102157.55
2024-01-28T03:02:38.188Z,102160.58
2024-01-28T03:05:06.906Z,102167.46
2024-01-28T03:07:34.893Z,102180.08
2024-01-28T03:10:02.907Z,102169.54
2024-01-28T03:12:30.846Z,102181.60
2024-01-28T03:14:58.992Z,102186.83
2024-01-28T03:17:26.941Z,102187.16
2024-01-28T03:19:55.085Z,102194.70
2024-01-28T03:22:23.498Z,102201.49
2024-01-28T03:24:52.861Z,102198.55
2024-01-28T03:27:20.882Z,102202.98
2024-01-28T03:29:48.731Z,102197.39
2024-01-28T03:32:17.098Z,102190.52
2024-01-28T03:34:45.241Z,102191.01
2024-01-28T03:37:13.607Z,102189.52
2024-01-28T03:39:41.668Z,102190.10
2024-01-28T03:42:11.234Z,102186.40
2024-01-28T03:44:39.129Z,102192.32
2024-01-28T03:47:06.993Z,102194.02
2024-01-28T03:49:35.226Z,102192.40
2024-01-28T03:52:03.270Z,102200.20
2024-01-28T03:54:31.278Z,102202.66
2024-01-28T03:56:59.167Z,102201.84
2024-01-28T03:59:28.498Z,102198.77
2024-01-28T04:01:56.502Z,102201.20
2024-01-28T04:04:24.649Z,102207.20
2024-01-28T04:06:53.280Z,102202.80
2024-01-28T04:09:21.254Z,102203.09
2024-01-28T04:11:49.086Z,102206.58
2024-01-28T04:14:16.962Z,102205.77
2024-01-28T04:16:44.728Z,102205.70
2024-01-28T04:19:13.066Z,102203.23
2024-01-28T04:21:42.220Z,102216.02
2024-01-28T04:24:10.511Z,102216.00
2024-01-28T04:26:38.606Z,102221.70
2024-01-28T04:29:06.358Z,102222.98
2024-01-28T04:31:34.219Z,102231.19
2024-01-28T04:34:02.213Z,102232.48
2024-01-28T04:36:30.226Z,102236.85
2024-01-28T04:38:58.218Z,102241.45
2024-01-28T04:41:26.203Z,102239.77
2024-01-28T04:43:54.085Z,102245.55
2024-01-28T04:46:22.031Z,102251.43
2024-01-28T04:48:50.182Z,102259.48
2024-01-28T04:51:18.169Z,102259.90
2024-01-28T04:53:46.005Z,102265.52
2024-01-28T04:56:14.014Z,102268.38
2024-01-28T04:58:41.980Z,102271.36
2024-01-28T05:01:10.232Z,102273.93
2024-01-28T05:03:38.411Z,102279.14
2024-01-28T05:06:06.651Z,102282.18
2024-01-28T05:08:34.697Z,102287.27
2024-01-28T05:11:02.608Z,102292.27
2024-01-28T05:13:30.703Z,102292.94
2024-01-28T05:15:58.651Z,102293.70
2024-01-28T05:18:27.571Z,102293.79
2024-01-28T05:20:55.811Z,102293.59
2024-01-28T05:23:23.703Z,102290.83
2024-01-28T05:25:51.538Z,102294.23
2024-01-28T05:28:19.474Z,102292.04
2024-01-28T05:30:48.124Z,102293.98
2024-01-28T05:33:16.292Z,102301.10
2024-01-28T05:35:44.349Z,102307.77
2024-01-28T05:38:12.318Z,102305.95
2024-01-28T05:40:40.293Z,102311.52
2024-01-28T05:43:08.569Z,102316.20
2024-01-28T05:45:36.488Z,102314.13
2024-01-28T05:48:04.880Z,102317.43
2024-01-28T05:50:33.096Z,102321.55
2024-01-28T05:53:00.936Z,102318.38
2024-01-28T05:55:28.834Z,102317.88
2024-01-28T05:57:56.870Z,102319.44
2024-01-28T06:00:24.942Z,102322.66
2024-01-28T06:02:52.793Z,102327.52
2024-01-28T06:05:20.682Z,102332.63
2024-01-28T06:07:48.586Z,102332.64
2024-01-28T06:10:16.940Z,102334.17
2024-01-28T06:12:44.922Z,102335.84
2024-01-28T06:15:13.034Z,102344.30
2024-01-28T06:17:41.707Z,102353.23
2024-01-28T06:20:09.986Z,102357.76
2024-01-28T06:22:38.045Z,102356.68
2024-01-28T06:25:08.069Z,102361.40
2024-01-28T06:27:36.061Z,102362.91
2024-01-28T06:30:04.423Z,102361.71
2024-01-28T06:32:33.445Z,102356.80
2024-01-28T06:35:01.554Z,102357.77
2024-01-28T06:37:30.017Z,102355.48
2024-01-28T06:39:57.940Z,102359.02
2024-01-28T06:42:26.627Z,102357.19
2024-01-28T06:44:54.613Z,102359.64
2024-01-28T06:47:22.623Z,102360.27
2024-01-28T06:49:51.517Z,102360.84
2024-01-28T06:52:19.604Z,102361.41
2024-01-28T06:54:47.724Z,102360.15
2024-01-28T06:57:15.828Z,102362.98
2024-01-28T06:59:45.114Z,102367.64
2024-01-28T07:02:13.411Z,102367.83
2024-01-28T07:04:41.295Z,102365.81
2024-01-28T07:07:09.613Z,102366.30
2024-01-28T07:09:37.798Z,102375.14
2024-01-28T07:12:08.259Z,102372.90
2024-01-28T07:14:36.282Z,102379.86
2024-01-28T07:17:04.562Z,102389.30
2024-01-28T07:19:32.431Z,102392.48
2024-01-28T07:22:00.493Z,102396.77
2024-01-28T07:24:28.654Z,102393.05
2024-01-28T07:26:56.604Z,102386.44
2024-01-28T07:29:24.429Z,102386.61
2024-01-28T07:31:54.075Z,102390.86
2024-01-28T07:34:24.444Z,102391.37
2024-01-28T07:36:55.355Z,102393.29
2024-01-28T07:39:23.674Z,102394.17
2024-01-28T07:41:51.496Z,102395.01
2024-01-28T07:44:19.389Z,102395.30
2024-01-28T07:46:48.288Z,102398.15
2024-01-28T07:49:17.973Z,102395.30
2024-01-28T07:51:46.055Z,102397.79
2024-01-28T07:54:14.027Z,102401.98
2024-01-28T07:56:41.895Z,102407.59
2024-01-28T07:59:09.946Z,102404.14
2024-01-28T08:01:38.194Z,102405.07
2024-01-28T08:04:06.323Z,102404.23
2024-01-28T08:06:34.466Z,102404.56
2024-01-28T08:09:02.438Z,102404.00
2024-01-28T08:11:30.369Z,102408.16
2024-01-28T08:13:58.386Z,102407.25
2024-01-28T08:16:26.384Z,102413.27
2024-01-28T08:18:55.343Z,102417.63
2024-01-28T08:21:24.121Z,102415.39
2024-01-28T08:23:52.451Z,102420.20
2024-01-28T08:26:20.334Z,102423.48
2024-01-28T08:28:48.298Z,102424.62
2024-01-28T08:31:16.389Z,102425.74
2024-01-28T08:33:44.591Z,102430.66
2024-01-28T08:36:12.866Z,102433.02
2024-01-28T08:38:40.888Z,102436.32
2024-01-28T08:41:08.896Z,102433.99
2024-01-28T08:43:37.078Z,102437.95
2024-01-28T08:46:05.213Z,102433.61
2024-01-28T08:48:33.607Z,102437.88
2024-01-28T08:51:01.736Z,102439.98
2024-01-28T08:53:30.606Z,102441.27
2024-01-28T08:55:58.890Z,102449.19
2024-01-28T08:58:27.539Z,102448.79
2024-01-28T09:00:55.917Z,102450.45
2024-01-28T09:03:24.024Z,102444.99
2024-01-28T09:05:52.220Z,102446.21
2024-01-28T09:08:20.184Z,102447.14
2024-01-28T09:10:48.084Z,102451.60
2024-01-28T09:13:16.225Z,102453.67
2024-01-28T09:15:44.197Z,102452.34
2024-01-28T09:18:12.680Z,102450.11
2024-01-28T09:20:40.884Z,102446.39
2024-01-28T09:23:09.226Z,102450.64
2024-01-28T09:25:37.642Z,102454.48
2024-01-28T09:28:08.653Z,102453.09
2024-01-28T09:30:36.874Z,102450.93
2024-01-28T09:33:06.925Z,102457.92
2024-01-28T09:35:35.213Z,102461.06
2024-01-28T09:38:03.837Z,102459.54
2024-01-28T09:40:32.045Z,102458.70
2024-01-28T09:43:13.414Z,102460.56
2024-01-28T09:45:42.121Z,102458.59
2024-01-28T09:48:12.165Z,102462.43
2024-01-28T09:50:40.879Z,102455.69
2024-01-28T09:53:11.603Z,102455.15
2024-01-28T09:55:40.611Z,102454.31
2024-01-28T09:58:09.501Z,102464.48
2024-01-28T10:00:42.803Z,102466.27
2024-01-28T10:03:12.217Z,102469.67
2024-01-28T10:05:40.559Z,102472.04
2024-01-28T10:08:09.357Z,102471.27
2024-01-28T10:10:37.996Z,102478.06
2024-01-28T10:13:07.980Z,102484.25
2024-01-28T10:15:36.430Z,102478.17
2024-01-28T10:18:07.607Z,102470.83
2024-01-28T10:20:36.393Z,102469.85
2024-01-28T10:23:05.282Z,102465.79
2024-01-28T10:25:36.156Z,102465.32
2024-01-28T10:28:05.760Z,102468.30
2024-01-28T10:30:35.892Z,102473.92
2024-01-28T10:33:04.824Z,102482.91
2024-01-28T10:35:37.153Z,102483.55
2024-01-28T10:38:08.015Z,102486.11
2024-01-28T10:40:40.483Z,102488.31
2024-01-28T10:43:12.550Z,102482.95
2024-01-28T10:45:43.516Z,102484.52
2024-01-28T10:48:19.841Z,102484.40
2024-01-28T10:50:48.646Z,102482.55
2024-01-28T10:53:17.517Z,102483.19
2024-01-28T10:55:46.488Z,102485.90
2024-01-28T10:58:17.365Z,102487.38
2024-01-28T11:00:49.166Z,102489.80
2024-01-28T11:03:19.667Z,102491.21
2024-01-28T11:05:49.035Z,102489.67
2024-01-28T11:08:18.525Z,102494.80
2024-01-28T11:10:48.240Z,102495.54
2024-01-28T11:13:16.537Z,102496.98
2024-01-28T11:15:46.502Z,102500.13
2024-01-28T11:18:20.948Z,102496.60
2024-01-28T11:20:50.258Z,102496.83
2024-01-28T11:23:21.342Z,102496.30
2024-01-28T11:25:53.348Z,102498.91
2024-01-28T11:28:24.332Z,102501.17
2024-01-28T11:30:59.973Z,102504.13
2024-01-28T11:33:37.321Z,102507.05
2024-01-28T11:36:08.130Z,102502.38
2024-01-28T11:38:41.910Z,102501.11
2024-01-28T11:41:12.480Z,102506.46
2024-01-28T11:43:40.881Z,102506.50
2024-01-28T11:46:13.112Z,102504.48
2024-01-28T11:48:45.012Z,102505.06
2024-01-28T11:51:16.405Z,102511.48
2024-01-28T11:53:47.766Z,102510.61
2024-01-28T11:56:19.196Z,102509.42
2024-01-28T11:58:48.333Z,102506.71
2024-01-28T12:01:24.908Z,102508.88
2024-01-28T12:03:56.722Z,102510.65
2024-01-28T12:06:32.034Z,102514.51
2024-01-28T12:09:01.767Z,102512.58
2024-01-28T12:11:32.536Z,102515.20
2024-01-28T12:14:07.275Z,102516.42
2024-01-28T12:16:36.277Z,102519.73
2024-01-28T12:19:07.401Z,102523.66
2024-01-28T12:21:36.088Z,102523.83
2024-01-28T12:24:09.876Z,102526.65
2024-01-28T12:26:43.129Z,102526.51
2024-01-28T12:29:16.044Z,102526.23
2024-01-28T12:31:44.880Z,102529.54
2024-01-28T12:34:19.893Z,102528.15
2024-01-28T12:36:49.502Z,102528.35
2024-01-28T12:39:22.001Z,102527.48
2024-01-28T12:41:52.262Z,102531.94
2024-01-28T12:44:23.734Z,102530.90
2024-01-28T12:46:52.220Z,102532.73
2024-01-28T12:49:20.977Z,102535.16
2024-01-28T12:51:52.438Z,102534.90
2024-01-28T12:54:31.185Z,102537.45
2024-01-28T12:57:00.735Z,102536.77
2024-01-28T12:59:31.928Z,102534.72
2024-01-28T13:02:00.288Z,102532.10
2024-01-28T13:04:29.328Z,102529.92
2024-01-28T13:07:03.838Z,102529.90
2024-01-28T13:09:33.206Z,102529.19
2024-01-28T13:12:05.070Z,102527.80
2024-01-28T13:14:40.194Z,102530.75
2024-01-28T13:17:12.776Z,102534.38
2024-01-28T13:19:44.934Z,102535.06
2024-01-28T13:22:16.770Z,102531.94
2024-01-28T13:24:53.019Z,102530.31
2024-01-28T13:27:24.166Z,102533.59
2024-01-28T13:30:00.761Z,102528.36
2024-01-28T13:32:32.631Z,102529.39
2024-01-28T13:35:10.069Z,102530.86
2024-01-28T13:37:41.710Z,102535.92
2024-01-28T13:40:12.988Z,102538.09
2024-01-28T13:42:44.781Z,102538.42
2024-01-28T13:45:16.440Z,102541.36
2024-01-28T13:47:47.411Z,102545.05
2024-01-28T13:50:17.613Z,102543.45
2024-01-28T13:52:57.253Z,102542.59
2024-01-28T13:55:28.969Z,102541.06
2024-01-28T13:57:57.570Z,102537.94
2024-01-28T14:00:28.915Z,102536.72
2024-01-28T14:03:00.802Z,102535.52
2024-01-28T14:05:39.736Z,102531.66
2024-01-28T14:08:10.711Z,102534.48
2024-01-28T14:10:41.107Z,102535.80
2024-01-28T14:13:15.539Z,102535.96
2024-01-28T14:15:44.823Z,102531.30
2024-01-28T14:18:23.769Z,102533.52
2024-01-28T14:20:52.324Z,102535.57
2024-01-28T14:23:25.848Z,102534.79
2024-01-28T14:25:58.777Z,102537.22
2024-01-28T14:28:27.555Z,102536.05
2024-01-28T14:30:58.105Z,102538.33
2024-01-28T14:33:30.843Z,102540.68
2024-01-28T14:36:00.764Z,102542.59
2024-01-28T14:38:35.954Z,102542.89
2024-01-28T14:41:05.404Z,102544.73
2024-01-28T14:43:37.134Z,102546.36
2024-01-28T14:46:09.390Z,102544.85
2024-01-28T14:48:42.785Z,102543.15
2024-01-28T14:51:12.914Z,102544.35
2024-01-28T14:53:45.189Z,102543.17
2024-01-28T14:56:17.217Z,102538.09
2024-01-28T14:58:49.763Z,102537.27
2024-01-28T15:01:23.385Z,102541.10
2024-01-28T15:03:56.979Z,102546.99
2024-01-28T15:06:29.329Z,102543.50
2024-01-28T15:09:02.458Z,102546.16
2024-01-28T15:11:32.243Z,102545.10
2024-01-28T15:14:01.563Z,102549.95
2024-01-28T15:16:33.805Z,102552.48
2024-01-28T15:19:04.895Z,102550.17
2024-01-28T15:21:35.483Z,102548.85
2024-01-28T15:24:04.647Z,102549.66
2024-01-28T15:26:44.253Z,102547.77
2024-01-28T15:29:16.640Z,102550.23
2024-01-28T15:31:49.051Z,102554.17
2024-01-28T15:34:20.949Z,102554.27
2024-01-28T15:36:52.105Z,102558.52
2024-01-28T15:39:20.766Z,102557.76
2024-01-28T15:41:52.679Z,102560.05
2024-01-28T15:44:24.759Z,102562.08
2024-01-28T15:46:59.338Z,102567.64
2024-01-28T15:49:32.585Z,102567.73
2024-01-28T15:52:09.557Z,102567.50
2024-01-28T15:54:43.746Z,102561.87
2024-01-28T15:57:14.211Z,102565.04
2024-01-28T15:59:54.957Z,102565.84
2024-01-28T16:02:37.590Z,102562.38
2024-01-28T16:05:09.449Z,102558.53
2024-01-28T16:07:40.436Z,102556.28
2024-01-28T16:10:18.471Z,102557.96
2024-01-28T16:12:56.561Z,102551.29
2024-01-28T16:15:32.337Z,102545.00
2024-01-28T16:18:06.959Z,102549.19
2024-01-28T16:20:38.211Z,102550.89
2024-01-28T16:23:13.448Z,102548.48
2024-01-28T16:25:47.541Z,102550.30
2024-01-28T16:28:18.460Z,102556.38
2024-01-28T16:30:52.452Z,102560.45
2024-01-28T16:33:28.885Z,102561.07
2024-01-28T16:36:09.887Z,102563.23
2024-01-28T16:38:40.862Z,102565.58
2024-01-28T16:41:13.435Z,102563.91
2024-01-28T16:43:47.400Z,102569.10
2024-01-28T16:46:23.752Z,102572.24
2024-01-28T16:51:55.856Z,102584.71
2024-01-28T16:54:26.344Z,102587.80
2024-01-28T16:57:18.021Z,102594.94
2024-01-28T16:59:48.975Z,102597.61
2024-01-28T17:02:26.441Z,102599.83
2024-01-28T17:05:04.764Z,102598.83
2024-01-28T17:07:39.935Z,102603.88
2024-01-28T17:10:11.369Z,102604.55
2024-01-28T17:12:43.974Z,102604.23
2024-01-28T17:15:20.208Z,102605.00
2024-01-28T17:17:56.021Z,102604.39
2024-01-28T17:20:30.087Z,102604.81
2024-01-28T17:23:03.720Z,102606.60
2024-01-28T17:25:38.198Z,102606.38
2024-01-28T17:28:13.074Z,102606.77
2024-01-28T17:30:45.381Z,102606.86
2024-01-28T17:33:16.996Z,102608.36
2024-01-28T17:35:53.384Z,102614.69
2024-01-28T17:38:27.727Z,102616.03
2024-01-28T17:41:04.844Z,102619.86
2024-01-28T17:43:37.364Z,102618.27
2024-01-28T17:46:11.281Z,102615.36
2024-01-28T17:48:47.573Z,102609.42
2024-01-28T17:51:17.704Z,102607.83
2024-01-28T17:53:47.746Z,102612.23
2024-01-28T17:56:18.064Z,102612.91
2024-01-28T17:58:48.224Z,102613.35
2024-01-28T18:01:23.725Z,102615.80
2024-01-28T18:03:52.634Z,102614.02
2024-01-28T18:06:28.115Z,102612.44
2024-01-28T18:09:04.234Z,102612.59
2024-01-28T18:11:36.516Z,102609.55
2024-01-28T18:14:21.478Z,102612.96
2024-01-28T18:16:52.830Z,102616.29
2024-01-28T18:19:24.499Z,102609.55
2024-01-28T18:22:01.419Z,102606.72
2024-01-28T18:24:37.249Z,102606.78
2024-01-28T18:27:13.661Z,102614.10
2024-01-28T18:29:45.855Z,102623.52
2024-01-28T18:32:20.426Z,102626.66
2024-01-28T18:34:50.712Z,102624.98
2024-01-28T18:37:23.634Z,102620.85
2024-01-28T18:40:06.147Z,102617.27
2024-01-28T18:42:38.659Z,102619.05
2024-01-28T18:45:22.135Z,102622.80
2024-01-28T18:47:55.287Z,102625.33
2024-01-28T18:50:44.759Z,102625.13
2024-01-28T18:53:20.369Z,102622.98
2024-01-28T18:55:55.161Z,102624.13
2024-01-28T18:58:34.010Z,102626.02
2024-01-28T19:01:05.504Z,102632.02
2024-01-28T19:03:52.407Z,102630.37
2024-01-28T19:06:53.268Z,102627.50
2024-01-28T19:09:32.338Z,102621.77
2024-01-28T19:12:09.835Z,102617.39
2024-01-28T19:14:45.924Z,102618.17
2024-01-28T19:17:23.581Z,102613.70
2024-01-28T19:20:10.778Z,102615.80
2024-01-28T19:22:41.377Z,102616.67
2024-01-28T19:25:24.637Z,102618.39
2024-01-28T19:28:00.280Z,102621.12
2024-01-28T19:30:39.704Z,102622.67
2024-01-28T19:33:17.778Z,102628.38
2024-01-28T19:35:58.575Z,102632.16
2024-01-28T19:38:37.365Z,102631.90
2024-01-28T19:44:20.471Z,102618.69
2024-01-28T19:47:08.163Z,102620.06
2024-01-28T19:50:05.242Z,102618.30
2024-01-28T19:52:43.403Z,102616.38
2024-01-28T19:55:19.293Z,102612.65
2024-01-28T19:57:50.417Z,102612.15
2024-01-28T20:00:37.269Z,102605.49
2024-01-28T20:03:15.528Z,102609.05
2024-01-28T20:05:53.361Z,102610.98
2024-01-28T20:08:33.008Z,102610.98
2024-01-28T20:11:06.385Z,102619.10
2024-01-28T20:13:45.868Z,102619.54
2024-01-28T20:16:16.875Z,102627.40
2024-01-28T20:18:48.521Z,102631.82
2024-01-28T20:21:28.510Z,102635.17
2024-01-28T20:24:12.481Z,102629.91
2024-01-28T20:26:46.270Z,102619.69
2024-01-28T20:29:21.700Z,102616.06
2024-01-28T20:31:56.802Z,102625.09
2024-01-28T20:34:29.891Z,102633.69
2024-01-28T20:37:17.965Z,102634.94
2024-01-28T20:39:50.109Z,102634.25
2024-01-28T20:42:20.893Z,102632.98
2024-01-28T20:44:56.479Z,102633.14
2024-01-28T20:47:26.508Z,102642.05
2024-01-28T20:50:00.478Z,102644.15
2024-01-28T20:52:29.795Z,102647.10
2024-01-28T20:55:08.150Z,102643.14
2024-01-28T20:57:40.355Z,102642.69
2024-01-28T21:00:17.920Z,102636.09
2024-01-28T21:02:56.375Z,102628.20
2024-01-28T21:05:35.672Z,102622.02
2024-01-28T21:08:06.965Z,102614.56
2024-01-28T21:10:45.310Z,102605.55
2024-01-28T21:13:28.001Z,102602.67
2024-01-28T21:16:14.643Z,102602.96
2024-01-28T21:18:45.437Z,102597.98
2024-01-28T21:21:16.469Z,102593.10
2024-01-28T21:23:52.074Z,102590.20
2024-01-28T21:26:25.024Z,102591.46
2024-01-28T21:29:08.280Z,102597.61
2024-01-28T21:31:40.879Z,102598.45
2024-01-28T21:34:20.509Z,102604.73
2024-01-28T21:36:50.902Z,102601.71
2024-01-28T21:39:20.377Z,102598.83
2024-01-28T21:42:01.406Z,102599.35
2024-01-28T21:44:34.002Z,102601.83
2024-01-28T21:47:06.566Z,102605.38
2024-01-28T21:49:41.146Z,102606.66
2024-01-28T21:52:13.622Z,102609.79
2024-01-28T21:54:44.955Z,102618.75
2024-01-28T21:57:19.963Z,102622.10
2024-01-28T21:59:52.083Z,102630.35
2024-01-28T22:02:23.438Z,102628.54
2024-01-28T22:04:54.528Z,102630.58
2024-01-28T22:07:23.864Z,102633.48
2024-01-28T22:09:53.356Z,102634.35
2024-01-28T22:12:24.609Z,102636.61
2024-01-28T22:14:54.530Z,102639.13
2024-01-28T22:17:23.711Z,102634.33
2024-01-28T22:19:52.285Z,102620.17
2024-01-28T22:22:23.113Z,102616.20
2024-01-28T22:24:52.415Z,102614.39
2024-01-28T22:27:21.827Z,102616.30
2024-01-28T22:29:53.749Z,102616.91
2024-01-28T22:32:25.052Z,102620.11
2024-01-28T22:34:53.645Z,102633.45
2024-01-28T22:37:23.549Z,102633.10
2024-01-28T22:39:52.038Z,102635.65
2024-01-28T22:42:20.274Z,102638.81
2024-01-28T22:44:48.133Z,102647.33
2024-01-28T22:47:16.109Z,102647.54
2024-01-28T22:49:44.096Z,102652.27
2024-01-28T22:52:12.339Z,102652.83
2024-01-28T22:54:40.452Z,102650.05
2024-01-28T22:57:08.529Z,102651.58
2024-01-28T22:59:36.526Z,102652.36
2024-01-28T23:02:04.658Z,102648.77
2024-01-28T23:04:32.937Z,102646.23
2024-01-28T23:07:01.292Z,102648.38
2024-01-28T23:09:29.394Z,102645.11
2024-01-28T23:11:57.453Z,102636.77
2024-01-28T23:14:25.786Z,102632.61
2024-01-28T23:17:08.882Z,102633.05
2024-01-28T23:19:37.021Z,102632.73
2024-01-28T23:22:05.114Z,102633.31
2024-01-28T23:24:33.215Z,102634.85
2024-01-28T23:27:01.419Z,102636.87
2024-01-28T23:29:30.687Z,102636.64
2024-01-28T23:31:59.213Z,102637.01
2024-01-28T23:34:27.257Z,102634.79
2024-01-28T23:36:55.280Z,102635.54
2024-01-28T23:39:23.196Z,102636.85
2024-01-28T23:41:51.098Z,102632.34
2024-01-28T23:44:19.638Z,102627.98
2024-01-28T23:46:47.554Z,102619.71
2024-01-28T23:49:15.575Z,102623.23
2024-01-28T23:51:47.532Z,102624.75
2024-01-28T23:54:18.924Z,102624.21
2024-01-28T23:56:46.838Z,102619.72
2024-01-28T23:59:14.821Z,102620.50
